This is the latest recevied weather packets stored in our database for station/object EB5AGF-13. If no packets are shown the sender has not sent any weather packets the latest 10 day(s).
| Time | Temp. | Humidity | Pressure | Rain* | Wind** | Luminosity | Snow |
|---|---|---|---|---|---|---|---|
| 1778012232 | 18.89° C | 80% | 1007.8 hPa | 0 mm | 2.24 m/s, 239° | 0 W/m² | - |
| 1778011927 | 18.89° C | 80% | 1007.8 hPa | 0 mm | 2.24 m/s, 204° | 0 W/m² | - |
| 1778011623 | 18.89° C | 80% | 1007.8 hPa | 0 mm | 0.45 m/s, 229° | 0 W/m² | - |
| 1778011319 | 18.89° C | 80% | 1007.7 hPa | 0 mm | 0.89 m/s, 237° | 0 W/m² | - |
| 1778011016 | 18.89° C | 79% | 1007.5 hPa | 0 mm | 1.79 m/s, 203° | 0 W/m² | - |
| 1778010711 | 18.89° C | 79% | 1007.6 hPa | 0 mm | 0.45 m/s, 215° | 0 W/m² | - |
| 1778010407 | 18.89° C | 79% | 1007.6 hPa | 0 mm | 0.45 m/s, 225° | 0 W/m² | - |
| 1778010103 | 18.89° C | 79% | 1007.6 hPa | 0 mm | 0.89 m/s, 224° | 0 W/m² | - |
| 1778009799 | 18.89° C | 79% | 1007.6 hPa | 0 mm | 2.68 m/s, 250° | 0 W/m² | - |
| 1778009492 | 18.89° C | 79% | 1007.5 hPa | 0 mm | 0.89 m/s, 198° | 0 W/m² | - |
| 1778009191 | 18.89° C | 78% | 1007.5 hPa | 0 mm | 0.89 m/s, 236° | 0 W/m² | - |
| 1778008887 | 18.89° C | 78% | 1007.6 hPa | 0 mm | 0.45 m/s, 313° | 0 W/m² | - |
| 1778008583 | 18.89° C | 78% | 1007.5 hPa | 0 mm | 0.45 m/s, 213° | 0 W/m² | - |
| 1778008279 | 18.89° C | 77% | 1007.4 hPa | 0 mm | 0.45 m/s, 331° | 0 W/m² | - |
| 1778007975 | 19.44° C | 77% | 1007.2 hPa | 0 mm | 1.79 m/s, 157° | 1 W/m² | - |
| 1778007672 | 19.44° C | 77% | 1007.3 hPa | 0 mm | 0 m/s | 1 W/m² | - |
| 1778007367 | 19.44° C | 76% | 1007.3 hPa | 0 mm | 0.89 m/s, 100° | 2 W/m² | - |
| 1778007063 | 19.44° C | 75% | 1007.4 hPa | 0 mm | 1.79 m/s, 230° | 4 W/m² | - |
| 1778006759 | 19.44° C | 75% | 1007.4 hPa | 0 mm | 2.68 m/s, 246° | 6 W/m² | - |
| 1778006455 | 19.44° C | 74% | 1007.3 hPa | 0 mm | 2.68 m/s, 223° | 9 W/m² | - |
| 1778005847 | 20° C | 73% | 1007.3 hPa | 0 mm | 0.89 m/s, 321° | 15 W/m² | - |
| 1778005543 | 20° C | 71% | 1007.4 hPa | 0 mm | 0.89 m/s, 248° | 18 W/m² | - |
| 1778005233 | 20° C | 71% | 1007.1 hPa | 0 mm | 1.34 m/s, 77° | 19 W/m² | - |
| 1778004932 | 20° C | 71% | 1007.1 hPa | 0 mm | 4.02 m/s, 182° | 21 W/m² | - |
| 1778004631 | 20° C | 71% | 1007.1 hPa | 0 mm | 1.34 m/s, 213° | 28 W/m² | - |
* Rain latest hour (hover to see other rain measurements)
** Current wind speed in m/s (hover to see current wind gust speed)